sensor_id;sensor_type;location;lat;lon;timestamp;pressure;altitude;pressure_sealevel;temperature;humidity
74542;BME280;63015;45.378;20.360;2022-12-18T00:01:57;102163.78;;;0.53;72.97
74542;BME280;63015;45.378;20.360;2022-12-18T00:04:01;102155.41;;;0.56;72.57
74542;BME280;63015;45.378;20.360;2022-12-18T00:06:02;102158.94;;;0.58;72.71
74542;BME280;63015;45.378;20.360;2022-12-18T00:08:02;102152.03;;;0.57;72.69
74542;BME280;63015;45.378;20.360;2022-12-18T00:10:03;102163.69;;;0.65;72.67
74542;BME280;63015;45.378;20.360;2022-12-18T00:12:04;102166.94;;;0.62;72.47
74542;BME280;63015;45.378;20.360;2022-12-18T00:14:05;102168.06;;;0.66;72.21
74542;BME280;63015;45.378;20.360;2022-12-18T00:16:08;102168.75;;;0.63;72.34
74542;BME280;63015;45.378;20.360;2022-12-18T00:18:10;102180.97;;;0.68;72.35
74542;BME280;63015;45.378;20.360;2022-12-18T00:20:10;102181.66;;;0.40;73.16
74542;BME280;63015;45.378;20.360;2022-12-18T00:22:11;102188.13;;;0.46;73.09
74542;BME280;63015;45.378;20.360;2022-12-18T00:24:12;102187.31;;;0.47;73.10
74542;BME280;63015;45.378;20.360;2022-12-18T00:26:19;102193.75;;;0.29;73.89
74542;BME280;63015;45.378;20.360;2022-12-18T00:28:19;102189.31;;;0.26;73.63
74542;BME280;63015;45.378;20.360;2022-12-18T00:30:20;102201.25;;;0.26;74.27
74542;BME280;63015;45.378;20.360;2022-12-18T00:32:21;102208.72;;;0.23;74.12
74542;BME280;63015;45.378;20.360;2022-12-18T00:34:22;102214.84;;;0.25;74.28
74542;BME280;63015;45.378;20.360;2022-12-18T00:36:28;102215.81;;;0.27;74.34
74542;BME280;63015;45.378;20.360;2022-12-18T00:38:30;102222.19;;;0.20;73.98
74542;BME280;63015;45.378;20.360;2022-12-18T00:40:30;102219.09;;;0.12;74.37
74542;BME280;63015;45.378;20.360;2022-12-18T00:42:31;102230.13;;;0.23;73.84
74542;BME280;63015;45.378;20.360;2022-12-18T00:44:50;102224.31;;;0.26;73.66
74542;BME280;63015;45.378;20.360;2022-12-18T00:46:51;102231.16;;;0.13;73.43
74542;BME280;63015;45.378;20.360;2022-12-18T00:48:51;102242.81;;;0.22;72.73
74542;BME280;63015;45.378;20.360;2022-12-18T00:50:52;102239.56;;;0.24;73.17
74542;BME280;63015;45.378;20.360;2022-12-18T00:52:53;102237.09;;;0.38;72.75
74542;BME280;63015;45.378;20.360;2022-12-18T00:54:53;102246.25;;;0.34;72.88
74542;BME280;63015;45.378;20.360;2022-12-18T00:56:54;102248.91;;;0.36;72.52
74542;BME280;63015;45.378;20.360;2022-12-18T00:58:55;102256.84;;;0.39;72.32
74542;BME280;63015;45.378;20.360;2022-12-18T01:00:56;102255.63;;;0.34;72.35
74542;BME280;63015;45.378;20.360;2022-12-18T01:02:56;102249.50;;;0.31;72.68
74542;BME280;63015;45.378;20.360;2022-12-18T01:04:58;102246.94;;;0.31;72.61
74542;BME280;63015;45.378;20.360;2022-12-18T01:06:59;102252.09;;;0.20;73.24
74542;BME280;63015;45.378;20.360;2022-12-18T01:09:02;102250.63;;;0.11;73.86
74542;BME280;63015;45.378;20.360;2022-12-18T01:11:11;102250.34;;;0.07;73.76
74542;BME280;63015;45.378;20.360;2022-12-18T01:13:12;102261.47;;;0.07;73.75
74542;BME280;63015;45.378;20.360;2022-12-18T01:15:13;102253.56;;;0.04;74.00
74542;BME280;63015;45.378;20.360;2022-12-18T01:17:14;102250.66;;;-0.01;73.95
74542;BME280;63015;45.378;20.360;2022-12-18T01:19:15;102252.22;;;-0.03;74.37
74542;BME280;63015;45.378;20.360;2022-12-18T01:21:16;102254.78;;;-0.14;75.08
74542;BME280;63015;45.378;20.360;2022-12-18T01:23:17;102259.16;;;-0.25;75.09
74542;BME280;63015;45.378;20.360;2022-12-18T01:25:17;102258.50;;;-0.23;75.50
74542;BME280;63015;45.378;20.360;2022-12-18T01:27:18;102257.25;;;-0.28;75.50
74542;BME280;63015;45.378;20.360;2022-12-18T01:29:19;102255.59;;;-0.27;75.53
74542;BME280;63015;45.378;20.360;2022-12-18T01:31:23;102264.28;;;-0.25;75.86
74542;BME280;63015;45.378;20.360;2022-12-18T01:33:24;102274.75;;;-0.34;76.10
74542;BME280;63015;45.378;20.360;2022-12-18T01:35:25;102276.09;;;-0.27;75.70
74542;BME280;63015;45.378;20.360;2022-12-18T01:37:27;102286.44;;;-0.26;76.15
74542;BME280;63015;45.378;20.360;2022-12-18T01:39:28;102279.53;;;-0.15;75.35
74542;BME280;63015;45.378;20.360;2022-12-18T01:41:30;102277.19;;;-0.12;74.73
74542;BME280;63015;45.378;20.360;2022-12-18T01:43:56;102279.19;;;-0.08;74.49
74542;BME280;63015;45.378;20.360;2022-12-18T01:45:59;102276.06;;;-0.15;75.38
74542;BME280;63015;45.378;20.360;2022-12-18T01:48:06;102275.88;;;-0.19;75.18
74542;BME280;63015;45.378;20.360;2022-12-18T01:50:17;102282.31;;;-0.24;75.41
74542;BME280;63015;45.378;20.360;2022-12-18T01:52:18;102282.31;;;-0.24;75.63
74542;BME280;63015;45.378;20.360;2022-12-18T01:54:20;102284.31;;;-0.31;75.64
74542;BME280;63015;45.378;20.360;2022-12-18T01:56:22;102277.00;;;-0.27;75.41
74542;BME280;63015;45.378;20.360;2022-12-18T01:58:50;102290.00;;;-0.24;75.63
74542;BME280;63015;45.378;20.360;2022-12-18T02:00:54;102295.81;;;-0.26;75.68
74542;BME280;63015;45.378;20.360;2022-12-18T02:02:55;102299.03;;;-0.17;74.94
74542;BME280;63015;45.378;20.360;2022-12-18T02:04:56;102289.81;;;-0.15;75.10
74542;BME280;63015;45.378;20.360;2022-12-18T02:09:50;102301.59;;;-0.17;74.75
74542;BME280;63015;45.378;20.360;2022-12-18T02:16:49;102306.50;;;-0.20;75.14
74542;BME280;63015;45.378;20.360;2022-12-18T02:18:57;102311.19;;;-0.26;75.16
74542;BME280;63015;45.378;20.360;2022-12-18T02:23:56;102312.50;;;-0.20;74.95
74542;BME280;63015;45.378;20.360;2022-12-18T02:26:20;102317.53;;;-0.21;74.74
74542;BME280;63015;45.378;20.360;2022-12-18T02:28:29;102313.06;;;-0.24;74.81
74542;BME280;63015;45.378;20.360;2022-12-18T02:30:35;102317.75;;;-0.18;74.80
74542;BME280;63015;45.378;20.360;2022-12-18T02:32:40;102314.97;;;-0.09;74.23
74542;BME280;63015;45.378;20.360;2022-12-18T02:34:43;102320.75;;;-0.12;74.18
74542;BME280;63015;45.378;20.360;2022-12-18T02:36:49;102327.78;;;-0.09;74.52
74542;BME280;63015;45.378;20.360;2022-12-18T02:38:52;102330.34;;;-0.09;74.62
74542;BME280;63015;45.378;20.360;2022-12-18T02:40:56;102330.59;;;-0.06;73.97
74542;BME280;63015;45.378;20.360;2022-12-18T02:43:11;102328.34;;;-0.13;74.41
74542;BME280;63015;45.378;20.360;2022-12-18T02:45:12;102336.69;;;-0.28;75.03
74542;BME280;63015;45.378;20.360;2022-12-18T02:47:14;102337.47;;;-0.17;74.57
74542;BME280;63015;45.378;20.360;2022-12-18T02:51:50;102332.91;;;-0.21;74.48
74542;BME280;63015;45.378;20.360;2022-12-18T02:54:09;102341.63;;;-0.19;74.15
74542;BME280;63015;45.378;20.360;2022-12-18T02:56:38;102340.03;;;-0.17;73.87
74542;BME280;63015;45.378;20.360;2022-12-18T03:01:23;102345.63;;;-0.23;74.34
74542;BME280;63015;45.378;20.360;2022-12-18T03:04:01;102339.56;;;-0.23;73.99
74542;BME280;63015;45.378;20.360;2022-12-18T03:06:05;102351.81;;;-0.31;74.45
74542;BME280;63015;45.378;20.360;2022-12-18T03:08:30;102349.34;;;-0.41;75.11
74542;BME280;63015;45.378;20.360;2022-12-18T03:10:35;102349.03;;;-0.46;75.20
74542;BME280;63015;45.378;20.360;2022-12-18T03:12:44;102359.75;;;-0.40;74.52
74542;BME280;63015;45.378;20.360;2022-12-18T03:14:49;102353.72;;;-0.40;74.81
74542;BME280;63015;45.378;20.360;2022-12-18T03:16:54;102351.50;;;-0.36;74.40
74542;BME280;63015;45.378;20.360;2022-12-18T03:19:24;102350.69;;;-0.46;74.88
74542;BME280;63015;45.378;20.360;2022-12-18T03:21:31;102350.75;;;-0.57;75.15
74542;BME280;63015;45.378;20.360;2022-12-18T03:23:40;102358.59;;;-0.55;75.09
74542;BME280;63015;45.378;20.360;2022-12-18T03:25:45;102365.72;;;-0.51;74.99
74542;BME280;63015;45.378;20.360;2022-12-18T03:27:51;102367.72;;;-0.47;74.62
74542;BME280;63015;45.378;20.360;2022-12-18T03:30:04;102365.38;;;-0.56;75.07
74542;BME280;63015;45.378;20.360;2022-12-18T03:32:23;102360.59;;;-0.51;74.34
74542;BME280;63015;45.378;20.360;2022-12-18T03:34:31;102361.38;;;-0.52;74.87
74542;BME280;63015;45.378;20.360;2022-12-18T03:36:35;102363.25;;;-0.61;75.18
74542;BME280;63015;45.378;20.360;2022-12-18T03:38:36;102360.44;;;-0.64;75.12
74542;BME280;63015;45.378;20.360;2022-12-18T03:45:51;102364.19;;;-0.71;75.22
74542;BME280;63015;45.378;20.360;2022-12-18T03:50:20;102365.81;;;-0.61;74.83
74542;BME280;63015;45.378;20.360;2022-12-18T03:52:36;102365.91;;;-0.60;74.82
74542;BME280;63015;45.378;20.360;2022-12-18T03:54:41;102366.94;;;-0.58;74.54
74542;BME280;63015;45.378;20.360;2022-12-18T03:56:51;102370.28;;;-0.59;74.83
74542;BME280;63015;45.378;20.360;2022-12-18T03:58:56;102391.38;;;-0.73;75.56
74542;BME280;63015;45.378;20.360;2022-12-18T04:01:04;102389.91;;;-0.70;74.98
74542;BME280;63015;45.378;20.360;2022-12-18T04:03:07;102397.09;;;-0.65;74.58
74542;BME280;63015;45.378;20.360;2022-12-18T04:05:15;102391.06;;;-0.66;74.67
74542;BME280;63015;45.378;20.360;2022-12-18T04:07:19;102401.47;;;-0.75;75.17
74542;BME280;63015;45.378;20.360;2022-12-18T04:09:22;102400.28;;;-0.90;75.87
74542;BME280;63015;45.378;20.360;2022-12-18T04:11:25;102395.66;;;-0.84;75.48
74542;BME280;63015;45.378;20.360;2022-12-18T04:13:32;102394.66;;;-0.86;75.49
74542;BME280;63015;45.378;20.360;2022-12-18T04:15:36;102402.34;;;-0.86;75.60
74542;BME280;63015;45.378;20.360;2022-12-18T04:17:47;102408.81;;;-0.79;75.30
74542;BME280;63015;45.378;20.360;2022-12-18T04:19:49;102404.94;;;-0.74;75.13
74542;BME280;63015;45.378;20.360;2022-12-18T04:21:50;102407.50;;;-0.74;75.18
74542;BME280;63015;45.378;20.360;2022-12-18T04:23:51;102408.50;;;-0.72;74.62
74542;BME280;63015;45.378;20.360;2022-12-18T04:25:54;102413.50;;;-0.74;75.17
74542;BME280;63015;45.378;20.360;2022-12-18T04:28:09;102418.69;;;-0.84;75.53
74542;BME280;63015;45.378;20.360;2022-12-18T04:30:12;102423.09;;;-0.93;75.60
74542;BME280;63015;45.378;20.360;2022-12-18T04:32:12;102425.00;;;-0.91;75.18
74542;BME280;63015;45.378;20.360;2022-12-18T04:34:16;102423.00;;;-0.95;75.46
74542;BME280;63015;45.378;20.360;2022-12-18T04:36:22;102426.22;;;-0.97;75.91
74542;BME280;63015;45.378;20.360;2022-12-18T04:38:27;102427.25;;;-1.06;76.20
74542;BME280;63015;45.378;20.360;2022-12-18T04:40:36;102435.72;;;-1.07;76.30
74542;BME280;63015;45.378;20.360;2022-12-18T04:42:41;102446.56;;;-0.99;75.49
74542;BME280;63015;45.378;20.360;2022-12-18T04:44:42;102439.81;;;-1.09;76.23
74542;BME280;63015;45.378;20.360;2022-12-18T04:46:42;102446.84;;;-1.06;75.99
74542;BME280;63015;45.378;20.360;2022-12-18T04:48:45;102448.75;;;-1.04;75.89
74542;BME280;63015;45.378;20.360;2022-12-18T04:50:46;102453.25;;;-1.11;76.34
74542;BME280;63015;45.378;20.360;2022-12-18T04:52:48;102460.72;;;-1.14;76.40
74542;BME280;63015;45.378;20.360;2022-12-18T04:54:48;102455.06;;;-1.10;75.78
74542;BME280;63015;45.378;20.360;2022-12-18T04:56:49;102450.44;;;-1.04;75.78
74542;BME280;63015;45.378;20.360;2022-12-18T04:58:50;102460.78;;;-1.03;75.61
74542;BME280;63015;45.378;20.360;2022-12-18T05:00:50;102472.56;;;-1.05;75.70
74542;BME280;63015;45.378;20.360;2022-12-18T05:02:51;102471.13;;;-1.01;75.40
74542;BME280;63015;45.378;20.360;2022-12-18T05:04:51;102477.94;;;-1.02;75.75
74542;BME280;63015;45.378;20.360;2022-12-18T05:06:52;102481.91;;;-1.05;75.51
74542;BME280;63015;45.378;20.360;2022-12-18T05:08:52;102475.75;;;-1.07;75.77
74542;BME280;63015;45.378;20.360;2022-12-18T05:11:04;102481.25;;;-1.03;75.45
74542;BME280;63015;45.378;20.360;2022-12-18T05:13:04;102484.59;;;-1.04;75.34
74542;BME280;63015;45.378;20.360;2022-12-18T05:15:05;102482.44;;;-1.09;75.46
74542;BME280;63015;45.378;20.360;2022-12-18T05:17:06;102493.56;;;-1.09;75.49
74542;BME280;63015;45.378;20.360;2022-12-18T05:19:07;102492.47;;;-1.33;76.28
74542;BME280;63015;45.378;20.360;2022-12-18T05:21:08;102504.47;;;-1.22;75.81
74542;BME280;63015;45.378;20.360;2022-12-18T05:23:08;102514.97;;;-1.29;76.24
74542;BME280;63015;45.378;20.360;2022-12-18T05:25:09;102509.59;;;-1.22;75.71
74542;BME280;63015;45.378;20.360;2022-12-18T05:27:10;102505.50;;;-1.20;75.74
74542;BME280;63015;45.378;20.360;2022-12-18T05:29:10;102507.75;;;-1.12;75.51
74542;BME280;63015;45.378;20.360;2022-12-18T05:31:12;102507.66;;;-1.14;75.47
74542;BME280;63015;45.378;20.360;2022-12-18T05:33:13;102516.84;;;-1.16;75.83
74542;BME280;63015;45.378;20.360;2022-12-18T05:35:14;102519.06;;;-1.21;75.72
74542;BME280;63015;45.378;20.360;2022-12-18T05:37:14;102525.81;;;-1.21;75.72
74542;BME280;63015;45.378;20.360;2022-12-18T05:39:15;102529.19;;;-1.22;75.60
74542;BME280;63015;45.378;20.360;2022-12-18T05:41:16;102526.34;;;-1.25;75.87
74542;BME280;63015;45.378;20.360;2022-12-18T05:43:17;102531.50;;;-1.36;76.37
74542;BME280;63015;45.378;20.360;2022-12-18T05:45:18;102537.91;;;-1.51;76.63
74542;BME280;63015;45.378;20.360;2022-12-18T05:47:19;102536.75;;;-1.44;76.48
74542;BME280;63015;45.378;20.360;2022-12-18T05:49:19;102546.84;;;-1.36;76.02
74542;BME280;63015;45.378;20.360;2022-12-18T05:51:21;102545.56;;;-1.30;75.80
74542;BME280;63015;45.378;20.360;2022-12-18T05:53:22;102533.16;;;-1.26;75.79
74542;BME280;63015;45.378;20.360;2022-12-18T05:55:22;102547.22;;;-1.31;75.84
74542;BME280;63015;45.378;20.360;2022-12-18T05:57:23;102547.59;;;-1.37;75.86
74542;BME280;63015;45.378;20.360;2022-12-18T05:59:24;102560.53;;;-1.35;76.09
74542;BME280;63015;45.378;20.360;2022-12-18T06:01:26;102571.13;;;-1.30;75.52
74542;BME280;63015;45.378;20.360;2022-12-18T06:03:26;102574.72;;;-1.28;75.53
74542;BME280;63015;45.378;20.360;2022-12-18T06:05:27;102575.88;;;-1.25;75.21
74542;BME280;63015;45.378;20.360;2022-12-18T06:07:28;102574.31;;;-1.23;75.33
74542;BME280;63015;45.378;20.360;2022-12-18T06:09:29;102575.09;;;-1.24;74.93
74542;BME280;63015;45.378;20.360;2022-12-18T06:11:29;102576.13;;;-1.22;74.96
74542;BME280;63015;45.378;20.360;2022-12-18T06:13:30;102577.53;;;-1.25;75.01
74542;BME280;63015;45.378;20.360;2022-12-18T06:15:31;102585.97;;;-1.26;75.15
74542;BME280;63015;45.378;20.360;2022-12-18T06:17:32;102584.56;;;-1.23;75.19
74542;BME280;63015;45.378;20.360;2022-12-18T06:19:33;102593.25;;;-1.21;74.86
74542;BME280;63015;45.378;20.360;2022-12-18T06:21:34;102595.06;;;-1.20;74.75
74542;BME280;63015;45.378;20.360;2022-12-18T06:23:34;102595.94;;;-1.19;74.74
74542;BME280;63015;45.378;20.360;2022-12-18T06:25:38;102601.19;;;-1.18;74.68
74542;BME280;63015;45.378;20.360;2022-12-18T06:27:38;102602.72;;;-1.20;75.10
74542;BME280;63015;45.378;20.360;2022-12-18T06:29:39;102599.16;;;-1.22;74.88
74542;BME280;63015;45.378;20.360;2022-12-18T06:31:39;102598.00;;;-1.25;75.09
74542;BME280;63015;45.378;20.360;2022-12-18T06:33:40;102603.63;;;-1.29;75.20
74542;BME280;63015;45.378;20.360;2022-12-18T06:35:41;102614.63;;;-1.30;75.05
74542;BME280;63015;45.378;20.360;2022-12-18T06:37:41;102618.09;;;-1.30;75.22
74542;BME280;63015;45.378;20.360;2022-12-18T06:39:42;102614.91;;;-1.27;75.37
74542;BME280;63015;45.378;20.360;2022-12-18T06:41:43;102616.03;;;-1.24;75.25
74542;BME280;63015;45.378;20.360;2022-12-18T06:43:43;102622.56;;;-1.17;74.99
74542;BME280;63015;45.378;20.360;2022-12-18T06:45:44;102620.75;;;-1.18;75.26
74542;BME280;63015;45.378;20.360;2022-12-18T06:47:46;102629.44;;;-1.16;75.19
74542;BME280;63015;45.378;20.360;2022-12-18T06:49:47;102630.25;;;-1.17;75.07
74542;BME280;63015;45.378;20.360;2022-12-18T06:51:47;102625.34;;;-1.14;75.01
74542;BME280;63015;45.378;20.360;2022-12-18T06:53:48;102627.66;;;-1.07;74.91
74542;BME280;63015;45.378;20.360;2022-12-18T06:55:49;102623.16;;;-0.99;75.05
74542;BME280;63015;45.378;20.360;2022-12-18T06:57:50;102634.16;;;-0.90;74.73
74542;BME280;63015;45.378;20.360;2022-12-18T06:59:51;102635.53;;;-0.83;74.62
74542;BME280;63015;45.378;20.360;2022-12-18T07:01:51;102633.81;;;-0.72;74.32
74542;BME280;63015;45.378;20.360;2022-12-18T07:03:54;102641.34;;;-0.63;74.32
74542;BME280;63015;45.378;20.360;2022-12-18T07:05:54;102642.75;;;-0.57;74.38
74542;BME280;63015;45.378;20.360;2022-12-18T07:07:55;102646.81;;;-0.48;74.00
74542;BME280;63015;45.378;20.360;2022-12-18T07:09:56;102636.94;;;-0.44;73.96
74542;BME280;63015;45.378;20.360;2022-12-18T07:11:56;102641.94;;;-0.45;73.81
74542;BME280;63015;45.378;20.360;2022-12-18T07:13:57;102649.09;;;-0.41;73.79
74542;BME280;63015;45.378;20.360;2022-12-18T07:16:09;102649.84;;;-0.32;73.68
74542;BME280;63015;45.378;20.360;2022-12-18T07:18:10;102651.31;;;-0.24;73.77
74542;BME280;63015;45.378;20.360;2022-12-18T07:20:11;102649.25;;;-0.18;73.36
74542;BME280;63015;45.378;20.360;2022-12-18T07:22:11;102659.72;;;-0.14;73.37
74542;BME280;63015;45.378;20.360;2022-12-18T07:24:12;102659.25;;;-0.21;73.43
74542;BME280;63015;45.378;20.360;2022-12-18T07:26:14;102666.66;;;-0.13;73.49
74542;BME280;63015;45.378;20.360;2022-12-18T07:28:15;102672.38;;;-0.28;73.51
74542;BME280;63015;45.378;20.360;2022-12-18T07:30:15;102667.81;;;-0.10;73.79
74542;BME280;63015;45.378;20.360;2022-12-18T07:32:16;102670.03;;;-0.03;73.46
74542;BME280;63015;45.378;20.360;2022-12-18T07:34:16;102670.78;;;0.07;73.25
74542;BME280;63015;45.378;20.360;2022-12-18T07:36:17;102669.31;;;0.21;73.19
74542;BME280;63015;45.378;20.360;2022-12-18T07:38:18;102672.63;;;0.20;72.87
74542;BME280;63015;45.378;20.360;2022-12-18T07:40:19;102672.22;;;0.25;72.58
74542;BME280;63015;45.378;20.360;2022-12-18T07:42:19;102683.38;;;0.26;72.73
74542;BME280;63015;45.378;20.360;2022-12-18T07:44:32;102679.13;;;0.26;72.83
74542;BME280;63015;45.378;20.360;2022-12-18T07:46:32;102687.84;;;0.28;72.62
74542;BME280;63015;45.378;20.360;2022-12-18T07:48:33;102690.22;;;0.37;72.62
74542;BME280;63015;45.378;20.360;2022-12-18T07:50:34;102689.31;;;0.37;72.57
74542;BME280;63015;45.378;20.360;2022-12-18T07:52:35;102686.88;;;0.38;72.21
74542;BME280;63015;45.378;20.360;2022-12-18T07:54:35;102696.06;;;0.46;72.16
74542;BME280;63015;45.378;20.360;2022-12-18T07:56:36;102696.06;;;0.46;71.45
74542;BME280;63015;45.378;20.360;2022-12-18T07:58:37;102707.63;;;0.63;72.01
74542;BME280;63015;45.378;20.360;2022-12-18T08:00:37;102704.38;;;0.66;71.57
74542;BME280;63015;45.378;20.360;2022-12-18T08:02:38;102705.94;;;0.64;71.59
74542;BME280;63015;45.378;20.360;2022-12-18T08:04:38;102707.53;;;0.74;72.15
74542;BME280;63015;45.378;20.360;2022-12-18T08:06:39;102706.50;;;0.72;71.49
74542;BME280;63015;45.378;20.360;2022-12-18T08:08:39;102719.03;;;0.79;71.24
74542;BME280;63015;45.378;20.360;2022-12-18T08:10:42;102713.13;;;0.80;71.38
74542;BME280;63015;45.378;20.360;2022-12-18T08:12:43;102715.38;;;0.87;71.32
74542;BME280;63015;45.378;20.360;2022-12-18T08:14:43;102714.25;;;0.84;70.81
74542;BME280;63015;45.378;20.360;2022-12-18T08:16:44;102705.22;;;0.89;71.06
74542;BME280;63015;45.378;20.360;2022-12-18T08:18:45;102709.16;;;0.95;71.44
74542;BME280;63015;45.378;20.360;2022-12-18T08:20:45;102712.50;;;0.94;71.43
74542;BME280;63015;45.378;20.360;2022-12-18T08:22:46;102712.03;;;0.88;71.06
74542;BME280;63015;45.378;20.360;2022-12-18T08:24:46;102710.59;;;0.92;70.87
74542;BME280;63015;45.378;20.360;2022-12-18T08:26:47;102724.78;;;0.98;71.13
74542;BME280;63015;45.378;20.360;2022-12-18T08:28:48;102718.44;;;1.05;70.79
74542;BME280;63015;45.378;20.360;2022-12-18T08:30:51;102726.13;;;0.93;70.49
74542;BME280;63015;45.378;20.360;2022-12-18T08:32:52;102726.91;;;1.04;71.15
74542;BME280;63015;45.378;20.360;2022-12-18T08:34:54;102733.22;;;0.86;71.42
74542;BME280;63015;45.378;20.360;2022-12-18T08:36:54;102736.59;;;0.96;71.16
74542;BME280;63015;45.378;20.360;2022-12-18T08:38:56;102733.19;;;1.20;71.20
74542;BME280;63015;45.378;20.360;2022-12-18T08:41:05;102741.25;;;1.36;70.34
74542;BME280;63015;45.378;20.360;2022-12-18T08:43:08;102734.88;;;1.43;70.47
74542;BME280;63015;45.378;20.360;2022-12-18T08:45:28;102738.94;;;1.39;69.67
74542;BME280;63015;45.378;20.360;2022-12-18T08:47:29;102739.59;;;1.48;70.26
74542;BME280;63015;45.378;20.360;2022-12-18T08:49:30;102742.84;;;1.58;70.00
74542;BME280;63015;45.378;20.360;2022-12-18T08:51:31;102744.84;;;1.62;69.66
74542;BME280;63015;45.378;20.360;2022-12-18T08:53:32;102747.09;;;1.69;69.79
74542;BME280;63015;45.378;20.360;2022-12-18T08:55:32;102744.16;;;1.64;69.63
74542;BME280;63015;45.378;20.360;2022-12-18T08:57:33;102745.50;;;1.71;69.98
74542;BME280;63015;45.378;20.360;2022-12-18T08:59:33;102745.84;;;1.64;69.06
74542;BME280;63015;45.378;20.360;2022-12-18T09:01:34;102743.72;;;1.82;69.49
74542;BME280;63015;45.378;20.360;2022-12-18T09:03:35;102744.28;;;1.90;68.97
74542;BME280;63015;45.378;20.360;2022-12-18T09:05:35;102746.88;;;1.78;68.03
74542;BME280;63015;45.378;20.360;2022-12-18T09:07:36;102744.50;;;1.81;68.54
74542;BME280;63015;45.378;20.360;2022-12-18T09:09:36;102739.91;;;1.89;68.42
74542;BME280;63015;45.378;20.360;2022-12-18T09:11:37;102744.19;;;1.88;68.73
74542;BME280;63015;45.378;20.360;2022-12-18T09:13:38;102739.13;;;1.66;68.55
74542;BME280;63015;45.378;20.360;2022-12-18T09:15:47;102745.38;;;1.81;68.29
74542;BME280;63015;45.378;20.360;2022-12-18T09:17:48;102734.19;;;1.93;68.88
74542;BME280;63015;45.378;20.360;2022-12-18T09:19:50;102742.16;;;1.84;67.67
74542;BME280;63015;45.378;20.360;2022-12-18T09:21:51;102736.66;;;1.91;68.13
74542;BME280;63015;45.378;20.360;2022-12-18T09:23:53;102739.38;;;1.81;68.10
74542;BME280;63015;45.378;20.360;2022-12-18T09:25:58;102748.31;;;1.74;68.42
74542;BME280;63015;45.378;20.360;2022-12-18T09:28:00;102748.75;;;1.45;69.73
74542;BME280;63015;45.378;20.360;2022-12-18T09:30:01;102754.13;;;1.84;69.21
74542;BME280;63015;45.378;20.360;2022-12-18T09:32:02;102746.28;;;1.94;68.41
74542;BME280;63015;45.378;20.360;2022-12-18T09:34:02;102745.16;;;1.90;68.59
74542;BME280;63015;45.378;20.360;2022-12-18T09:36:05;102745.16;;;1.90;68.82
74542;BME280;63015;45.378;20.360;2022-12-18T09:38:06;102749.81;;;2.20;68.27
74542;BME280;63015;45.378;20.360;2022-12-18T09:40:20;102750.38;;;2.16;67.41
74542;BME280;63015;45.378;20.360;2022-12-18T09:42:21;102744.78;;;2.21;67.84
74542;BME280;63015;45.378;20.360;2022-12-18T09:44:41;102745.88;;;2.25;67.13
74542;BME280;63015;45.378;20.360;2022-12-18T09:46:51;102748.97;;;1.95;67.21
74542;BME280;63015;45.378;20.360;2022-12-18T09:48:58;102756.31;;;2.14;68.04
74542;BME280;63015;45.378;20.360;2022-12-18T09:51:03;102754.72;;;2.28;68.06
74542;BME280;63015;45.378;20.360;2022-12-18T09:53:11;102751.53;;;2.44;67.80
74542;BME280;63015;45.378;20.360;2022-12-18T09:57:18;102754.47;;;2.37;67.73
74542;BME280;63015;45.378;20.360;2022-12-18T09:59:39;102752.94;;;2.27;67.18
74542;BME280;63015;45.378;20.360;2022-12-18T10:01:40;102757.25;;;1.56;68.68
74542;BME280;63015;45.378;20.360;2022-12-18T10:03:40;102757.59;;;1.96;68.61
74542;BME280;63015;45.378;20.360;2022-12-18T10:24:42;102767.44;;;1.90;68.03
74542;BME280;63015;45.378;20.360;2022-12-18T10:26:46;102761.91;;;2.21;68.40
74542;BME280;63015;45.378;20.360;2022-12-18T10:28:47;102759.34;;;2.46;67.72
74542;BME280;63015;45.378;20.360;2022-12-18T10:30:48;102753.28;;;2.57;67.52
74542;BME280;63015;45.378;20.360;2022-12-18T10:32:48;102749.06;;;2.46;67.16
74542;BME280;63015;45.378;20.360;2022-12-18T10:34:52;102763.63;;;2.45;67.48
74542;BME280;63015;45.378;20.360;2022-12-18T10:36:53;102751.47;;;2.56;67.29
74542;BME280;63015;45.378;20.360;2022-12-18T10:39:07;102758.94;;;2.40;67.08
74542;BME280;63015;45.378;20.360;2022-12-18T10:43:24;102755.78;;;2.44;66.76
74542;BME280;63015;45.378;20.360;2022-12-18T10:45:25;102756.44;;;2.53;66.69
74542;BME280;63015;45.378;20.360;2022-12-18T10:47:26;102752.38;;;2.57;66.70
74542;BME280;63015;45.378;20.360;2022-12-18T10:49:31;102757.47;;;2.69;66.90
74542;BME280;63015;45.378;20.360;2022-12-18T10:51:34;102764.63;;;2.73;66.71
74542;BME280;63015;45.378;20.360;2022-12-18T10:53:36;102766.47;;;2.25;67.24
74542;BME280;63015;45.378;20.360;2022-12-18T10:55:38;102754.88;;;2.43;67.28
74542;BME280;63015;45.378;20.360;2022-12-18T10:57:40;102755.50;;;2.65;67.13
74542;BME280;63015;45.378;20.360;2022-12-18T10:59:55;102753.06;;;2.54;66.13
74542;BME280;63015;45.378;20.360;2022-12-18T11:01:58;102749.47;;;2.64;66.46
74542;BME280;63015;45.378;20.360;2022-12-18T11:04:01;102746.44;;;2.83;66.83
74542;BME280;63015;45.378;20.360;2022-12-18T11:06:10;102746.63;;;3.11;66.54
74542;BME280;63015;45.378;20.360;2022-12-18T11:08:20;102739.28;;;3.04;65.56
74542;BME280;63015;45.378;20.360;2022-12-18T11:10:44;102741.72;;;2.89;65.50
74542;BME280;63015;45.378;20.360;2022-12-18T11:12:47;102747.56;;;2.87;66.16
74542;BME280;63015;45.378;20.360;2022-12-18T11:14:49;102744.09;;;2.86;66.27
74542;BME280;63015;45.378;20.360;2022-12-18T11:16:51;102735.91;;;2.67;65.61
74542;BME280;63015;45.378;20.360;2022-12-18T11:18:52;102737.13;;;2.72;66.81
74542;BME280;63015;45.378;20.360;2022-12-18T11:21:07;102747.44;;;2.85;66.64
74542;BME280;63015;45.378;20.360;2022-12-18T11:23:12;102738.84;;;2.85;66.71
74542;BME280;63015;45.378;20.360;2022-12-18T11:27:17;102729.94;;;2.68;66.25
74542;BME280;63015;45.378;20.360;2022-12-18T11:29:24;102729.25;;;2.95;66.43
74542;BME280;63015;45.378;20.360;2022-12-18T11:31:29;102738.69;;;2.95;66.20